Time;durP1;ratioP1;P1;durP2;ratioP2;P2;SDS_P1;SDS_P2;PMS_P1;PMS_P2;Temp;Humidity;BMP_temperature;BMP_pressure;BME280_temperature;BME280_humidity;BME280_pressure;Samples;Min_cycle;Max_cycle;Signal;HPM_P1;HPM_P2
2023/10/12 00:02:00;;;;;;;0.00;0.00;;;14.20;99.90;;;;;;5007451;28;20073;-65
2023/10/12 00:05:03;;;;;;;0.00;0.00;;;14.10;99.90;;;;;;5001653;28;20053;-65
2023/10/12 00:07:36;;;;;;;0.30;0.30;;;14.20;99.90;;;;;;5001789;28;20125;-65
2023/10/12 00:12:44;;;;;;;1.25;1.10;;;14.10;99.90;;;;;;5000718;28;20049;-65
2023/10/12 00:17:48;;;;;;;0.30;0.30;;;14.10;99.90;;;;;;4999564;28;20078;-65
2023/10/12 00:22:55;;;;;;;0.05;0.05;;;14.10;99.90;;;;;;5006467;28;20060;-65
2023/10/12 00:25:20;;;;;;;0.00;0.00;;;14.10;99.90;;;;;;4998357;28;20046;-65
2023/10/12 00:27:47;;;;;;;0.10;0.10;;;14.10;99.90;;;;;;5002447;28;20486;-65
2023/10/12 00:30:14;;;;;;;0.00;0.00;;;14.10;99.90;;;;;;5005702;28;20124;-65
2023/10/12 00:32:41;;;;;;;0.00;0.00;;;14.10;99.90;;;;;;5006059;28;20046;-65
2023/10/12 00:35:10;;;;;;;0.10;0.10;;;14.00;99.90;;;;;;4996172;28;20046;-65
2023/10/12 00:37:37;;;;;;;0.00;0.00;;;14.00;99.90;;;;;;5003009;28;20077;-64
2023/10/12 00:40:23;;;;;;;0.00;0.00;;;13.90;99.90;;;;;;4998689;28;20551;-65
2023/10/12 00:42:52;;;;;;;0.00;0.00;;;13.90;99.90;;;;;;5007096;28;20046;-65
2023/10/12 00:45:27;;;;;;;0.00;0.00;;;13.90;99.90;;;;;;5006080;28;20045;-65
2023/10/12 00:47:54;;;;;;;0.15;0.15;;;13.80;99.90;;;;;;5001600;28;20054;-65
2023/10/12 00:50:20;;;;;;;0.00;0.00;;;13.80;99.90;;;;;;5005341;28;20085;-65
2023/10/12 00:52:57;;;;;;;0.00;0.00;;;13.80;99.90;;;;;;5004736;28;20073;-65
2023/10/12 00:55:41;;;;;;;1.10;0.95;;;13.70;99.90;;;;;;5000493;28;20093;-65
2023/10/12 00:58:10;;;;;;;1.08;0.45;;;13.60;99.90;;;;;;5005057;28;20540;-65
2023/10/12 01:00:51;;;;;;;0.35;0.35;;;13.60;99.90;;;;;;5001857;28;20556;-65
2023/10/12 01:03:35;;;;;;;0.00;0.00;;;13.50;99.90;;;;;;5010813;28;20042;-65
2023/10/12 01:08:35;;;;;;;0.00;0.00;;;13.50;99.90;;;;;;5005196;28;20416;-65
2023/10/12 01:11:05;;;;;;;0.55;0.47;;;13.50;99.90;;;;;;5008189;28;20462;-65
2023/10/12 01:13:34;;;;;;;0.10;0.10;;;13.50;99.90;;;;;;5005455;28;20038;-65
2023/10/12 01:16:07;;;;;;;0.00;0.00;;;13.50;99.90;;;;;;5005155;28;20042;-65
2023/10/12 01:18:34;;;;;;;0.28;0.28;;;13.50;99.90;;;;;;5009235;28;20454;-65
2023/10/12 01:21:03;;;;;;;1.90;0.80;;;13.40;99.90;;;;;;5000442;28;20050;-65
2023/10/12 01:23:28;;;;;;;0.68;0.45;;;13.40;99.90;;;;;;5003805;28;20108;-65
2023/10/12 01:26:03;;;;;;;0.00;0.00;;;13.40;99.90;;;;;;5007706;28;20543;-65
2023/10/12 01:28:29;;;;;;;0.00;0.00;;;13.40;99.90;;;;;;5005145;28;20046;-65
2023/10/12 01:30:55;;;;;;;1.38;1.00;;;13.40;99.90;;;;;;4998851;28;20170;-65
2023/10/12 01:33:20;;;;;;;0.00;0.00;;;13.40;99.90;;;;;;5010096;28;20548;-65
2023/10/12 01:35:49;;;;;;;0.10;0.10;;;13.40;99.90;;;;;;5000178;28;20030;-65
2023/10/12 01:38:15;;;;;;;0.10;0.10;;;13.30;99.90;;;;;;5006047;28;20489;-65
2023/10/12 01:40:53;;;;;;;0.10;0.10;;;13.40;99.90;;;;;;5005732;28;20041;-65
2023/10/12 01:43:19;;;;;;;1.10;0.57;;;13.30;99.90;;;;;;5000158;28;20486;-64
2023/10/12 01:45:47;;;;;;;0.00;0.00;;;13.30;99.90;;;;;;4999463;28;20038;-65
2023/10/12 01:48:16;;;;;;;0.00;0.00;;;13.30;99.90;;;;;;5009740;28;20054;-65
2023/10/12 01:50:43;;;;;;;0.00;0.00;;;13.30;99.90;;;;;;4995705;28;20034;-65
2023/10/12 01:55:52;;;;;;;0.10;0.10;;;13.30;99.90;;;;;;5007343;28;20128;-65
2023/10/12 01:58:20;;;;;;;0.00;0.00;;;13.20;99.90;;;;;;5001426;28;20057;-65
2023/10/12 02:00:52;;;;;;;0.00;0.00;;;13.20;99.90;;;;;;5006136;28;20084;-65
2023/10/12 02:03:32;;;;;;;5.78;2.92;;;13.20;99.90;;;;;;4995449;28;20044;-65
2023/10/12 02:06:13;;;;;;;0.20;0.20;;;13.20;99.90;;;;;;5004186;28;20046;-65
2023/10/12 02:08:40;;;;;;;0.10;0.10;;;13.10;99.90;;;;;;5001186;28;20080;-65
2023/10/12 02:13:47;;;;;;;0.00;0.00;;;13.20;99.90;;;;;;5004311;28;20108;-64
2023/10/12 02:16:16;;;;;;;0.08;0.08;;;13.20;99.90;;;;;;5004906;28;20092;-65
2023/10/12 02:18:42;;;;;;;0.13;0.13;;;13.20;99.90;;;;;;5000823;28;20150;-65
2023/10/12 02:21:11;;;;;;;0.00;0.00;;;13.20;99.90;;;;;;5003572;28;20050;-64
2023/10/12 02:23:39;;;;;;;0.20;0.20;;;13.20;99.90;;;;;;5001556;28;20038;-64
2023/10/12 02:26:28;;;;;;;0.00;0.00;;;13.10;99.90;;;;;;5003756;28;20567;-65
2023/10/12 02:28:54;;;;;;;0.17;0.17;;;13.10;99.90;;;;;;5000737;28;20055;-65
2023/10/12 02:31:28;;;;;;;0.00;0.00;;;13.10;99.90;;;;;;5002740;28;20046;-64
2023/10/12 02:33:55;;;;;;;0.20;0.20;;;13.10;99.90;;;;;;5002232;28;20050;-64
2023/10/12 02:36:21;;;;;;;0.00;0.00;;;13.10;99.90;;;;;;5001310;28;20048;-65
2023/10/12 02:38:47;;;;;;;0.32;0.32;;;13.00;99.90;;;;;;5008174;28;20129;-65
2023/10/12 02:41:13;;;;;;;0.00;0.00;;;13.00;99.90;;;;;;5000262;28;20101;-64
2023/10/12 02:43:50;;;;;;;0.32;0.32;;;13.00;99.90;;;;;;4997187;28;20043;-65
2023/10/12 02:46:23;;;;;;;0.10;0.10;;;12.90;99.90;;;;;;4999620;28;20042;-64
2023/10/12 02:48:51;;;;;;;0.10;0.10;;;13.00;99.90;;;;;;5005346;28;20088;-64
2023/10/12 02:51:22;;;;;;;0.00;0.00;;;12.90;99.90;;;;;;5000970;28;20053;-65
2023/10/12 02:53:50;;;;;;;7.97;1.20;;;12.90;99.90;;;;;;5002388;28;20388;-65
2023/10/12 02:56:21;;;;;;;0.00;0.00;;;12.90;99.90;;;;;;4999915;28;20048;-65
2023/10/12 02:58:48;;;;;;;0.08;0.08;;;12.90;99.90;;;;;;5003933;28;20064;-65
2023/10/12 03:01:19;;;;;;;0.00;0.00;;;12.90;99.90;;;;;;5002665;28;20034;-64
2023/10/12 03:03:54;;;;;;;0.10;0.10;;;12.80;99.90;;;;;;5004695;28;20042;-64
2023/10/12 03:06:23;;;;;;;0.10;0.10;;;12.80;99.90;;;;;;5009371;28;20050;-65
2023/10/12 03:09:04;;;;;;;0.20;0.20;;;12.80;99.90;;;;;;5001911;28;20601;-65
2023/10/12 03:11:31;;;;;;;0.08;0.08;;;12.80;99.90;;;;;;4996615;28;20042;-65
2023/10/12 03:14:00;;;;;;;0.03;0.03;;;12.80;99.90;;;;;;5003806;28;20500;-65
2023/10/12 03:16:34;;;;;;;0.00;0.00;;;12.80;99.90;;;;;;5008786;28;20038;-65
2023/10/12 03:19:00;;;;;;;0.00;0.00;;;12.80;99.90;;;;;;4997657;28;20108;-65
2023/10/12 03:21:33;;;;;;;0.08;0.08;;;12.80;99.90;;;;;;5001013;28;20069;-64
2023/10/12 03:24:02;;;;;;;0.00;0.00;;;12.70;99.90;;;;;;4999754;28;20046;-64
2023/10/12 03:26:28;;;;;;;0.00;0.00;;;12.70;99.90;;;;;;4996354;28;20305;-64
2023/10/12 03:29:18;;;;;;;0.03;0.03;;;12.70;99.90;;;;;;4997300;28;20056;-65
2023/10/12 03:36:59;;;;;;;0.15;0.15;;;12.70;99.90;;;;;;4998736;28;20050;-64
2023/10/12 03:39:29;;;;;;;0.00;0.00;;;12.70;99.90;;;;;;4998234;28;20042;-65
2023/10/12 03:41:55;;;;;;;0.15;0.15;;;12.70;99.90;;;;;;5002558;28;20045;-64
2023/10/12 03:52:21;;;;;;;0.10;0.10;;;12.60;99.90;;;;;;5006970;28;20137;-64
2023/10/12 03:55:09;;;;;;;0.00;0.00;;;12.60;99.90;;;;;;5005155;28;20064;-65
2023/10/12 04:05:46;;;;;;;0.10;0.10;;;12.50;99.90;;;;;;4997109;28;20057;-65
2023/10/12 04:18:32;;;;;;;0.10;0.10;;;12.40;99.90;;;;;;4998478;28;20483;-65
2023/10/12 04:20:58;;;;;;;0.00;0.00;;;12.50;99.90;;;;;;4999970;28;20048;-64
2023/10/12 04:28:57;;;;;;;0.20;0.20;;;12.40;99.90;;;;;;4984761;28;20429;-65
2023/10/12 04:34:08;;;;;;;0.10;0.10;;;12.30;99.90;;;;;;5001299;28;20397;-65
2023/10/12 04:36:44;;;;;;;0.13;0.13;;;12.20;99.90;;;;;;5018126;28;20057;-65
2023/10/12 04:39:16;;;;;;;0.55;0.55;;;12.30;99.90;;;;;;5002418;28;20150;-64
2023/10/12 04:41:52;;;;;;;0.17;0.17;;;12.30;99.90;;;;;;5002876;28;20050;-64
2023/10/12 04:47:20;;;;;;;0.05;0.05;;;12.20;99.90;;;;;;4999938;28;20488;-65
2023/10/12 04:57:38;;;;;;;0.00;0.00;;;12.10;99.90;;;;;;5000174;28;20076;-64
2023/10/12 05:07:56;;;;;;;0.10;0.10;;;12.10;99.90;;;;;;5010367;28;20068;-65
2023/10/12 05:10:46;;;;;;;0.00;0.00;;;12.00;99.90;;;;;;5007365;28;20125;-65
2023/10/12 05:13:18;;;;;;;0.10;0.10;;;12.10;99.90;;;;;;5001501;28;20092;-64
2023/10/12 05:15:46;;;;;;;0.00;0.00;;;12.10;99.90;;;;;;5006333;28;20041;-64
2023/10/12 05:18:17;;;;;;;0.00;0.00;;;12.10;99.90;;;;;;5000715;28;20062;-65
2023/10/12 05:20:43;;;;;;;0.38;0.38;;;12.10;99.90;;;;;;5000433;28;20046;-65
2023/10/12 05:23:10;;;;;;;10.32;1.85;;;12.10;99.90;;;;;;5004370;28;20506;-64
2023/10/12 05:25:53;;;;;;;3.20;1.10;;;12.00;99.90;;;;;;5010121;28;20664;-65
2023/10/12 05:28:27;;;;;;;0.20;0.20;;;12.00;99.90;;;;;;5001849;28;20426;-65
2023/10/12 05:30:59;;;;;;;0.95;0.40;;;12.00;99.90;;;;;;5008050;28;20088;-64
2023/10/12 05:33:38;;;;;;;0.00;0.00;;;12.00;99.90;;;;;;4998680;28;20474;-64
2023/10/12 05:36:12;;;;;;;0.00;0.00;;;11.90;99.90;;;;;;5006780;28;20085;-65
2023/10/12 05:38:48;;;;;;;0.00;0.00;;;11.90;99.90;;;;;;5002045;28;20133;-64
2023/10/12 05:41:48;;;;;;;0.28;0.28;;;11.90;99.90;;;;;;5001032;28;20103;-65
2023/10/12 05:44:13;;;;;;;0.10;0.10;;;11.90;99.90;;;;;;4993743;28;20046;-64
2023/10/12 05:46:40;;;;;;;0.00;0.00;;;11.90;99.90;;;;;;4993237;28;20038;-65
2023/10/12 05:49:13;;;;;;;1.35;0.80;;;11.80;99.90;;;;;;5001611;28;20046;-65
2023/10/12 05:51:45;;;;;;;0.00;0.00;;;11.80;99.90;;;;;;5001872;28;20379;-65
2023/10/12 05:54:20;;;;;;;0.00;0.00;;;11.80;99.90;;;;;;5009216;28;20073;-65
2023/10/12 05:56:49;;;;;;;0.10;0.10;;;11.80;99.90;;;;;;5010864;28;20045;-65
2023/10/12 05:59:15;;;;;;;0.20;0.20;;;11.80;99.90;;;;;;5003896;28;20062;-64
2023/10/12 06:01:47;;;;;;;0.00;0.00;;;11.80;99.90;;;;;;5001660;28;20147;-64
2023/10/12 06:04:15;;;;;;;0.00;0.00;;;11.80;99.90;;;;;;4997948;28;20125;-64
2023/10/12 06:06:42;;;;;;;0.00;0.00;;;11.70;99.90;;;;;;5003565;28;20122;-64
2023/10/12 06:09:20;;;;;;;0.00;0.00;;;11.70;99.90;;;;;;5009200;28;20046;-65
2023/10/12 06:11:47;;;;;;;0.00;0.00;;;11.70;99.90;;;;;;5000539;28;20041;-65
2023/10/12 06:14:14;;;;;;;1.27;0.75;;;11.60;99.90;;;;;;4998697;28;20104;-65
2023/10/12 06:16:41;;;;;;;1.10;0.68;;;11.60;99.90;;;;;;4999889;28;20069;-65
2023/10/12 06:19:26;;;;;;;0.43;0.43;;;11.70;99.90;;;;;;4997749;28;20046;-65
2023/10/12 06:21:51;;;;;;;0.00;0.00;;;11.70;99.90;;;;;;5008577;28;20056;-65
2023/10/12 06:24:22;;;;;;;0.10;0.10;;;11.70;99.90;;;;;;5008643;28;20041;-65
2023/10/12 06:26:49;;;;;;;0.00;0.00;;;11.60;99.90;;;;;;5003431;28;20049;-65
2023/10/12 06:29:24;;;;;;;0.10;0.10;;;11.60;99.90;;;;;;4996954;28;20137;-65
2023/10/12 06:31:59;;;;;;;0.30;0.30;;;11.60;99.90;;;;;;4999454;28;20106;-65
2023/10/12 06:34:29;;;;;;;0.10;0.10;;;11.70;99.90;;;;;;5002064;28;20092;-65
2023/10/12 06:36:57;;;;;;;0.10;0.10;;;11.70;99.90;;;;;;5018969;28;20049;-65
2023/10/12 06:44:27;;;;;;;0.52;0.38;;;11.70;99.90;;;;;;5005599;28;20455;-65
2023/10/12 06:46:57;;;;;;;0.10;0.10;;;11.80;99.90;;;;;;5007309;28;20085;-65
2023/10/12 06:49:23;;;;;;;0.10;0.10;;;11.80;99.90;;;;;;5001137;28;20051;-65
2023/10/12 06:52:03;;;;;;;0.10;0.10;;;11.80;99.90;;;;;;4997446;28;20058;-65
2023/10/12 06:54:49;;;;;;;0.10;0.10;;;11.90;99.90;;;;;;5000568;28;20050;-65
2023/10/12 07:02:27;;;;;;;0.00;0.00;;;12.20;99.90;;;;;;5005564;28;20133;-65
2023/10/12 07:05:05;;;;;;;0.10;0.10;;;12.20;99.90;;;;;;4997910;28;20056;-65
2023/10/12 07:07:41;;;;;;;0.10;0.10;;;12.20;99.90;;;;;;5003715;28;20564;-65
2023/10/12 07:12:48;;;;;;;0.90;0.40;;;12.40;99.90;;;;;;5003034;28;20104;-65
2023/10/12 07:15:23;;;;;;;0.00;0.00;;;12.40;99.90;;;;;;5004052;28;20053;-65
2023/10/12 07:17:50;;;;;;;0.10;0.10;;;12.50;99.90;;;;;;4998073;28;20476;-65
2023/10/12 07:20:40;;;;;;;1.08;0.55;;;12.50;99.90;;;;;;5007461;28;20037;-65
2023/10/12 07:23:17;;;;;;;0.05;0.05;;;12.60;99.90;;;;;;5003651;28;20049;-65
2023/10/12 07:25:45;;;;;;;0.35;0.35;;;12.60;99.90;;;;;;5007589;28;20441;-65
2023/10/12 07:28:33;;;;;;;0.03;0.03;;;12.70;99.90;;;;;;4993551;28;20370;-65
2023/10/12 07:34:23;;;;;;;;;;;12.80;99.90;;;;;;4996836;28;20075;-65
2023/10/12 07:42:02;;;;;;;0.00;0.00;;;12.90;99.90;;;;;;4995903;28;20058;-65
2023/10/12 07:44:53;;;;;;;0.00;0.00;;;12.90;99.90;;;;;;5000209;28;20811;-65
2023/10/12 07:47:25;;;;;;;0.10;0.10;;;13.00;99.90;;;;;;4999588;28;20057;-65
2023/10/12 07:49:51;;;;;;;0.10;0.10;;;13.00;99.90;;;;;;5004727;28;20112;-65
2023/10/12 07:57:16;;;;;;;0.10;0.10;;;13.10;99.90;;;;;;5003861;28;20130;-65
2023/10/12 08:13:06;;;;;;;0.10;0.10;;;13.20;99.90;;;;;;5011250;28;20081;-65
2023/10/12 08:23:49;;;;;;;0.00;0.00;;;13.30;99.90;;;;;;5002908;28;20084;-65
2023/10/12 08:26:35;;;;;;;0.10;0.10;;;13.30;99.90;;;;;;5002100;28;20050;-65
2023/10/12 08:29:09;;;;;;;0.75;0.75;;;13.30;99.90;;;;;;5026605;28;20069;-65
2023/10/12 08:31:43;;;;;;;0.17;0.17;;;13.40;99.90;;;;;;5002732;28;20483;-65
2023/10/12 08:39:38;;;;;;;0.00;0.00;;;13.50;99.90;;;;;;5007060;28;20068;-64
2023/10/12 08:44:53;;;;;;;0.00;0.00;;;13.50;99.90;;;;;;5009192;28;20161;-65
2023/10/12 08:47:40;;;;;;;0.00;0.00;;;13.60;99.90;;;;;;5005697;28;20549;-65
2023/10/12 08:52:52;;;;;;;0.43;0.43;;;13.70;99.90;;;;;;5011145;28;20088;-65
2023/10/12 08:55:24;;;;;;;;;;;13.80;99.90;;;;;;5027435;28;20046;-65
2023/10/12 08:57:56;;;;;;;0.10;0.10;;;13.90;99.90;;;;;;5007644;28;19925;-65
2023/10/12 09:03:05;;;;;;;0.00;0.00;;;14.00;99.90;;;;;;5009894;28;20092;-65
2023/10/12 09:05:33;;;;;;;0.00;0.00;;;14.00;99.90;;;;;;5001357;28;20053;-65
2023/10/12 09:13:30;;;;;;;0.00;0.00;;;14.20;99.90;;;;;;5001015;28;20520;-65
2023/10/12 09:15:58;;;;;;;0.10;0.10;;;14.20;99.90;;;;;;5002307;28;20050;-65
2023/10/12 09:18:44;;;;;;;0.98;0.90;;;14.30;99.90;;;;;;4994360;28;20042;-65
2023/10/12 09:21:23;;;;;;;3.30;1.85;;;14.40;99.90;;;;;;5003717;28;20486;-65
2023/10/12 09:24:06;;;;;;;0.28;0.20;;;14.50;99.90;;;;;;5004194;28;20050;-65
2023/10/12 09:26:34;;;;;;;0.00;0.00;;;14.70;99.90;;;;;;5002904;28;20050;-65
2023/10/12 09:36:43;;;;;;;0.10;0.10;;;15.80;99.90;;;;;;5001137;28;20500;-64
2023/10/12 09:39:24;;;;;;;;;;;15.80;99.90;;;;;;4992581;28;20056;-65
2023/10/12 09:41:59;;;;;;;0.03;0.03;;;16.20;99.90;;;;;;5003867;28;19925;-65
2023/10/12 09:44:27;;;;;;;0.00;0.00;;;16.40;99.90;;;;;;4999323;28;20046;-65
2023/10/12 09:46:57;;;;;;;1.27;0.82;;;16.60;99.90;;;;;;5003770;28;20498;-65
2023/10/12 09:49:27;;;;;;;0.00;0.00;;;16.70;99.90;;;;;;5009486;28;20042;-65
2023/10/12 09:51:56;;;;;;;0.00;0.00;;;16.50;99.90;;;;;;5005256;28;20511;-65
2023/10/12 09:54:33;;;;;;;0.00;0.00;;;16.70;99.90;;;;;;5003865;28;20056;-65
2023/10/12 09:57:04;;;;;;;0.00;0.00;;;16.80;99.90;;;;;;5000905;28;20054;-65
2023/10/12 09:59:31;;;;;;;0.00;0.00;;;17.10;99.90;;;;;;5004941;28;20053;-65
2023/10/12 10:04:46;;;;;;;0.00;0.00;;;17.20;99.90;;;;;;5003001;28;20050;-65
2023/10/12 10:07:18;;;;;;;0.00;0.00;;;16.90;99.90;;;;;;5004401;28;20061;-65
2023/10/12 10:09:52;;;;;;;0.10;0.10;;;16.70;99.90;;;;;;4998462;28;20708;-65
2023/10/12 10:12:21;;;;;;;0.55;0.55;;;16.50;99.90;;;;;;5006689;28;20412;-65
2023/10/12 10:14:53;;;;;;;0.00;0.00;;;16.40;99.90;;;;;;4995337;28;20042;-65
2023/10/12 10:17:36;;;;;;;0.30;0.30;;;16.20;99.90;;;;;;5005607;28;20413;-65
2023/10/12 10:22:59;;;;;;;0.00;0.00;;;16.10;99.90;;;;;;5001645;28;20550;-65
2023/10/12 10:25:35;;;;;;;0.05;0.05;;;15.90;99.90;;;;;;5004647;28;20034;-65
2023/10/12 10:28:08;;;;;;;0.00;0.00;;;15.90;99.90;;;;;;5003009;28;20046;-65
2023/10/12 10:30:41;;;;;;;0.00;0.00;;;15.80;99.90;;;;;;4997999;28;20041;-65
2023/10/12 10:33:20;;;;;;;0.00;0.00;;;15.80;99.90;;;;;;5008066;28;20050;-65
2023/10/12 10:36:24;;;;;;;0.10;0.10;;;15.70;99.90;;;;;;5003558;28;20050;-65
2023/10/12 10:41:22;;;;;;;0.00;0.00;;;15.80;99.90;;;;;;5007716;28;20079;-65
2023/10/12 10:43:52;;;;;;;0.00;0.00;;;15.90;99.90;;;;;;4998946;28;20046;-65
2023/10/12 10:46:18;;;;;;;0.00;0.00;;;15.70;99.90;;;;;;5014382;28;20088;-65
2023/10/12 10:48:49;;;;;;;0.00;0.00;;;15.70;99.90;;;;;;5004620;28;20129;-65
2023/10/12 10:51:24;;;;;;;0.00;0.00;;;15.70;99.90;;;;;;5004450;28;20053;-65
2023/10/12 10:53:54;;;;;;;0.00;0.00;;;15.70;99.90;;;;;;5007178;28;20099;-65
2023/10/12 10:56:38;;;;;;;0.00;0.00;;;15.70;99.90;;;;;;5007133;28;20079;-66
2023/10/12 10:59:12;;;;;;;0.00;0.00;;;15.80;99.90;;;;;;5001667;28;20544;-65
2023/10/12 11:01:41;;;;;;;0.08;0.08;;;15.70;99.90;;;;;;5005611;28;20073;-65
2023/10/12 11:04:17;;;;;;;0.00;0.00;;;15.70;99.90;;;;;;5001339;28;20050;-65
2023/10/12 11:06:44;;;;;;;0.00;0.00;;;15.70;99.90;;;;;;4999912;28;20042;-65
2023/10/12 11:09:13;;;;;;;1.92;0.70;;;15.90;99.90;;;;;;5000105;28;20490;-66
2023/10/12 11:11:53;;;;;;;0.10;0.10;;;15.90;99.90;;;;;;5003850;28;20121;-65
2023/10/12 11:14:22;;;;;;;0.00;0.00;;;15.90;99.90;;;;;;5002275;28;20064;-65
2023/10/12 11:16:48;;;;;;;0.00;0.00;;;16.00;99.90;;;;;;4998619;28;20100;-65
2023/10/12 11:19:14;;;;;;;0.25;0.25;;;16.10;99.90;;;;;;4999198;28;20093;-65
2023/10/12 11:21:53;;;;;;;0.05;0.05;;;16.10;99.90;;;;;;5007722;28;20073;-65
2023/10/12 11:24:23;;;;;;;0.00;0.00;;;16.10;99.90;;;;;;4998221;28;20117;-65
2023/10/12 11:26:54;;;;;;;4.15;1.55;;;16.00;99.90;;;;;;5005868;28;20108;-65
2023/10/12 11:29:20;;;;;;;0.35;0.35;;;15.90;99.90;;;;;;5000509;28;20565;-65
2023/10/12 11:32:11;;;;;;;0.00;0.00;;;15.90;99.90;;;;;;4998904;28;20052;-65
2023/10/12 11:34:53;;;;;;;0.10;0.10;;;15.90;99.90;;;;;;5009468;28;20053;-65
2023/10/12 11:37:20;;;;;;;0.00;0.00;;;15.90;99.90;;;;;;5000578;28;20034;-65
2023/10/12 11:39:47;;;;;;;0.00;0.00;;;15.90;99.90;;;;;;5006205;28;20064;-65
2023/10/12 11:42:13;;;;;;;0.00;0.00;;;15.90;99.90;;;;;;5004320;28;20508;-65
2023/10/12 11:44:43;;;;;;;0.00;0.00;;;15.90;99.90;;;;;;5003095;28;20073;-65
2023/10/12 11:47:23;;;;;;;0.00;0.00;;;15.80;99.90;;;;;;4996803;28;20073;-65
2023/10/12 11:49:58;;;;;;;0.05;0.05;;;15.80;99.90;;;;;;4995920;28;20517;-65
2023/10/12 11:52:39;;;;;;;0.63;0.63;;;15.90;99.90;;;;;;5003119;28;20047;-65
2023/10/12 11:55:21;;;;;;;0.00;0.00;;;15.90;99.90;;;;;;4995310;28;20074;-65
2023/10/12 11:57:54;;;;;;;0.00;0.00;;;15.80;99.90;;;;;;5004882;28;20046;-65
2023/10/12 12:02:47;;;;;;;0.00;0.00;;;15.90;99.90;;;;;;4997689;28;19922;-65
2023/10/12 12:05:13;;;;;;;0.00;0.00;;;15.90;99.90;;;;;;4999553;28;20168;-65
2023/10/12 12:07:38;;;;;;;0.00;0.00;;;16.00;99.90;;;;;;4997570;28;20382;-65
2023/10/12 12:10:07;;;;;;;0.00;0.00;;;15.90;99.90;;;;;;4999462;28;20045;-65
2023/10/12 12:12:38;;;;;;;0.00;0.00;;;15.90;99.90;;;;;;5001931;28;20185;-65
2023/10/12 12:15:04;;;;;;;0.00;0.00;;;15.80;99.90;;;;;;4997804;28;20046;-65
2023/10/12 12:17:30;;;;;;;0.13;0.13;;;15.80;99.90;;;;;;5005803;28;20076;-65
2023/10/12 12:19:56;;;;;;;0.00;0.00;;;15.70;99.90;;;;;;4996740;28;20045;-64
2023/10/12 12:22:25;;;;;;;0.00;0.00;;;15.70;99.90;;;;;;4997893;28;20406;-65
2023/10/12 12:24:51;;;;;;;0.35;0.35;;;15.60;99.90;;;;;;5007862;28;20409;-65
2023/10/12 12:30:00;;;;;;;0.00;0.00;;;15.60;99.90;;;;;;5000902;28;20050;-65
2023/10/12 12:32:27;;;;;;;0.00;0.00;;;15.60;99.90;;;;;;5002964;28;20050;-65
2023/10/12 12:34:54;;;;;;;1.42;1.33;;;15.60;99.90;;;;;;5000188;28;20046;-65
2023/10/12 12:37:20;;;;;;;1.92;0.93;;;15.60;99.90;;;;;;5009060;28;20061;-65
2023/10/12 12:40:13;;;;;;;0.00;0.00;;;15.50;99.90;;;;;;4999973;28;20137;-65
2023/10/12 12:42:36;;;;;;;0.00;0.00;;;15.60;99.90;;;;;;4997579;28;20054;-65
2023/10/12 12:45:03;;;;;;;0.00;0.00;;;15.50;99.90;;;;;;5003799;28;20060;-65
2023/10/12 12:47:32;;;;;;;0.25;0.25;;;15.60;99.90;;;;;;4994187;28;20049;-65
2023/10/12 12:50:01;;;;;;;0.05;0.05;;;15.50;99.90;;;;;;5004905;28;20489;-65
2023/10/12 12:52:27;;;;;;;0.08;0.08;;;15.50;99.90;;;;;;5011740;28;20490;-65
2023/10/12 12:54:52;;;;;;;0.98;0.68;;;15.50;99.90;;;;;;5012913;28;20852;-65
2023/10/12 12:57:18;;;;;;;0.00;0.00;;;15.40;99.90;;;;;;4998398;28;20085;-66
2023/10/12 12:59:44;;;;;;;0.32;0.32;;;15.40;99.90;;;;;;5003037;28;20057;-66
2023/10/12 13:02:09;;;;;;;0.00;0.00;;;15.40;99.90;;;;;;5009208;28;20060;-66
2023/10/12 13:04:35;;;;;;;0.10;0.10;;;15.30;99.90;;;;;;5005129;28;20570;-65
2023/10/12 13:07:08;;;;;;;0.00;0.00;;;15.30;99.90;;;;;;5002078;28;20058;-65
2023/10/12 13:09:36;;;;;;;0.00;0.00;;;15.30;99.90;;;;;;5009238;28;20057;-65
2023/10/12 13:12:05;;;;;;;0.00;0.00;;;15.30;99.90;;;;;;5000729;28;20371;-65
2023/10/12 13:14:31;;;;;;;0.35;0.35;;;15.30;99.90;;;;;;5007713;28;20045;-65
2023/10/12 13:16:57;;;;;;;0.10;0.10;;;15.30;99.90;;;;;;5007459;28;20045;-65
2023/10/12 13:19:24;;;;;;;0.00;0.00;;;15.20;99.90;;;;;;5006538;28;20081;-65
2023/10/12 13:21:49;;;;;;;0.20;0.20;;;15.20;99.90;;;;;;5002149;28;20053;-65
2023/10/12 13:24:15;;;;;;;0.00;0.00;;;15.20;99.90;;;;;;5007015;28;20045;-65
2023/10/12 13:26:43;;;;;;;0.00;0.00;;;15.20;99.90;;;;;;4998328;28;20069;-65
2023/10/12 13:29:13;;;;;;;0.00;0.00;;;15.20;99.90;;;;;;5003480;28;20056;-66
2023/10/12 13:31:39;;;;;;;0.45;0.40;;;15.10;99.90;;;;;;5010370;28;20085;-65
2023/10/12 13:34:05;;;;;;;0.38;0.38;;;15.10;99.90;;;;;;5010474;28;20485;-65
2023/10/12 13:36:32;;;;;;;0.00;0.00;;;15.10;99.90;;;;;;5000644;28;20279;-65
2023/10/12 13:38:59;;;;;;;0.00;0.00;;;15.10;99.90;;;;;;5007559;28;20056;-65
2023/10/12 13:41:25;;;;;;;0.00;0.00;;;15.10;99.90;;;;;;5008706;28;20057;-65
2023/10/12 13:43:51;;;;;;;0.05;0.05;;;15.10;99.90;;;;;;5001635;28;20042;-65
2023/10/12 13:46:17;;;;;;;0.22;0.22;;;15.00;99.90;;;;;;5003496;28;20066;-65
2023/10/12 13:48:42;;;;;;;0.00;0.00;;;15.00;99.90;;;;;;5000101;28;20078;-65
2023/10/12 13:51:10;;;;;;;0.00;0.00;;;15.10;99.90;;;;;;5002861;28;20041;-65
2023/10/12 13:53:36;;;;;;;0.10;0.10;;;15.10;99.90;;;;;;5004403;28;20734;-65
2023/10/12 13:56:11;;;;;;;0.00;0.00;;;15.10;99.90;;;;;;5003175;28;20576;-65
2023/10/12 13:58:41;;;;;;;0.10;0.10;;;15.10;99.90;;;;;;5002664;28;20053;-65
2023/10/12 14:01:20;;;;;;;0.10;0.10;;;15.10;99.90;;;;;;5006557;28;20413;-66
2023/10/12 14:03:53;;;;;;;0.00;0.00;;;15.00;99.90;;;;;;5007474;28;20038;-65
2023/10/12 14:06:19;;;;;;;0.00;0.00;;;15.10;99.90;;;;;;5009393;28;20049;-65
2023/10/12 14:08:46;;;;;;;0.03;0.03;;;15.00;99.90;;;;;;5002057;28;20042;-66
2023/10/12 14:11:16;;;;;;;0.00;0.00;;;14.90;99.90;;;;;;5001048;28;20049;-66
2023/10/12 14:13:43;;;;;;;0.00;0.00;;;14.90;99.90;;;;;;4999676;28;20528;-66
2023/10/12 14:16:09;;;;;;;0.00;0.00;;;14.90;99.90;;;;;;5007303;28;20494;-65
2023/10/12 14:18:35;;;;;;;0.10;0.10;;;14.90;99.90;;;;;;5004000;28;20378;-65
2023/10/12 14:21:01;;;;;;;0.20;0.20;;;14.80;99.90;;;;;;5009036;28;20046;-65
2023/10/12 14:23:26;;;;;;;0.28;0.28;;;14.80;99.90;;;;;;5005545;28;20050;-65
2023/10/12 14:25:54;;;;;;;10.23;1.23;;;14.80;99.90;;;;;;5005516;28;20080;-65
2023/10/12 14:28:20;;;;;;;0.52;0.52;;;14.80;99.90;;;;;;4998098;28;20050;-66
2023/10/12 14:30:50;;;;;;;0.00;0.00;;;14.80;99.90;;;;;;5008026;28;20049;-65
2023/10/12 14:33:20;;;;;;;0.00;0.00;;;14.70;99.90;;;;;;5003353;28;20042;-65
2023/10/12 14:35:47;;;;;;;1.65;0.65;;;14.70;99.90;;;;;;5000953;28;20443;-65
2023/10/12 14:38:17;;;;;;;0.00;0.00;;;14.60;99.90;;;;;;5005393;28;20038;-65
2023/10/12 14:40:44;;;;;;;0.88;0.80;;;14.60;99.90;;;;;;4996231;28;20050;-65
2023/10/12 14:43:15;;;;;;;0.20;0.20;;;14.40;99.90;;;;;;5004941;28;20367;-65
2023/10/12 14:45:48;;;;;;;0.05;0.05;;;14.40;99.90;;;;;;4993736;28;20439;-65
2023/10/12 14:48:16;;;;;;;0.00;0.00;;;14.30;99.90;;;;;;5002554;28;20054;-65
2023/10/12 14:50:45;;;;;;;0.90;0.40;;;14.20;99.90;;;;;;5003271;28;20060;-65
2023/10/12 14:53:11;;;;;;;0.00;0.00;;;14.20;99.90;;;;;;5003518;28;20061;-65
2023/10/12 14:55:40;;;;;;;0.10;0.10;;;14.20;99.90;;;;;;4995676;28;20517;-65
2023/10/12 14:58:07;;;;;;;0.20;0.20;;;14.10;99.90;;;;;;5006068;28;20050;-65
2023/10/12 15:00:34;;;;;;;0.38;0.38;;;14.10;99.90;;;;;;5001848;28;20052;-65
2023/10/12 15:02:59;;;;;;;0.10;0.10;;;14.00;99.90;;;;;;4995310;28;20050;-65
2023/10/12 15:05:30;;;;;;;0.10;0.10;;;14.10;99.90;;;;;;5002173;28;21605;-65
2023/10/12 15:07:56;;;;;;;0.00;0.00;;;14.10;99.90;;;;;;4999995;28;20585;-65
2023/10/12 15:10:22;;;;;;;0.00;0.00;;;14.00;99.90;;;;;;5001080;28;20034;-65
2023/10/12 15:12:48;;;;;;;2.17;1.15;;;14.10;99.90;;;;;;4996038;28;20055;-65
2023/10/12 15:15:25;;;;;;;0.85;0.85;;;14.10;99.90;;;;;;5003524;28;20049;-65
2023/10/12 15:17:55;;;;;;;0.25;0.25;;;14.00;99.90;;;;;;5009156;28;20054;-66
2023/10/12 15:20:22;;;;;;;0.30;0.30;;;14.00;99.90;;;;;;5006076;28;20508;-66
2023/10/12 15:22:48;;;;;;;0.10;0.10;;;14.00;99.90;;;;;;4998786;28;20129;-66
2023/10/12 15:25:21;;;;;;;0.10;0.10;;;14.00;99.90;;;;;;4994742;28;20125;-66
2023/10/12 15:27:51;;;;;;;0.50;0.50;;;13.90;99.90;;;;;;5003506;28;20062;-66
2023/10/12 15:30:17;;;;;;;0.32;0.10;;;13.90;99.90;;;;;;5000283;28;20060;-66
2023/10/12 15:32:43;;;;;;;0.10;0.10;;;13.90;99.90;;;;;;4994299;28;20050;-66
2023/10/12 15:35:12;;;;;;;0.30;0.30;;;13.90;99.90;;;;;;5005968;28;20030;-66
2023/10/12 15:37:45;;;;;;;0.13;0.13;;;13.90;99.90;;;;;;4999917;28;20375;-66
2023/10/12 15:40:18;;;;;;;0.10;0.10;;;13.90;99.90;;;;;;5005393;28;20437;-67
2023/10/12 15:42:54;;;;;;;0.00;0.00;;;13.90;99.90;;;;;;5008314;28;20046;-66
2023/10/12 15:45:20;;;;;;;0.00;0.00;;;13.80;99.90;;;;;;5004895;28;20179;-66
2023/10/12 15:47:47;;;;;;;0.00;0.00;;;13.80;99.90;;;;;;4996481;28;20104;-65
2023/10/12 15:50:14;;;;;;;0.28;0.28;;;13.80;99.90;;;;;;5009072;28;21065;-66